sensor_id;sensor_type;location;lat;lon;timestamp;P1;durP1;ratioP1;P2;durP2;ratioP2
62332;SDS011;48624;49.812;8.562;2023-07-20T00:02:13;207.25;;;200.35;;
62332;SDS011;48624;49.812;8.562;2023-07-20T00:04:39;206.35;;;199.50;;
62332;SDS011;48624;49.812;8.562;2023-07-20T00:07:04;193.27;;;186.70;;
62332;SDS011;48624;49.812;8.562;2023-07-20T00:09:30;234.80;;;226.57;;
62332;SDS011;48624;49.812;8.562;2023-07-20T00:11:55;181.13;;;175.07;;
62332;SDS011;48624;49.812;8.562;2023-07-20T00:14:21;264.90;;;255.80;;
62332;SDS011;48624;49.812;8.562;2023-07-20T00:16:46;238.80;;;230.65;;
62332;SDS011;48624;49.812;8.562;2023-07-20T00:19:14;236.68;;;228.85;;
62332;SDS011;48624;49.812;8.562;2023-07-20T00:21:39;216.70;;;209.38;;
62332;SDS011;48624;49.812;8.562;2023-07-20T00:24:05;245.27;;;236.88;;
62332;SDS011;48624;49.812;8.562;2023-07-20T00:26:31;213.35;;;206.23;;
62332;SDS011;48624;49.812;8.562;2023-07-20T00:28:56;272.58;;;263.52;;
62332;SDS011;48624;49.812;8.562;2023-07-20T00:31:21;329.38;;;318.38;;
62332;SDS011;48624;49.812;8.562;2023-07-20T00:33:47;321.35;;;310.40;;
62332;SDS011;48624;49.812;8.562;2023-07-20T00:36:12;269.58;;;260.77;;
62332;SDS011;48624;49.812;8.562;2023-07-20T00:38:37;293.23;;;283.58;;
62332;SDS011;48624;49.812;8.562;2023-07-20T00:41:02;260.10;;;251.75;;
62332;SDS011;48624;49.812;8.562;2023-07-20T00:43:28;346.70;;;334.63;;
62332;SDS011;48624;49.812;8.562;2023-07-20T00:45:53;439.50;;;423.50;;
62332;SDS011;48624;49.812;8.562;2023-07-20T00:48:19;451.05;;;434.42;;
62332;SDS011;48624;49.812;8.562;2023-07-20T00:50:45;404.42;;;389.92;;
62332;SDS011;48624;49.812;8.562;2023-07-20T00:53:11;422.60;;;407.02;;
62332;SDS011;48624;49.812;8.562;2023-07-20T00:55:36;375.83;;;362.35;;
62332;SDS011;48624;49.812;8.562;2023-07-20T00:58:02;363.48;;;350.85;;
62332;SDS011;48624;49.812;8.562;2023-07-20T01:00:28;372.55;;;359.70;;
62332;SDS011;48624;49.812;8.562;2023-07-20T01:02:54;367.25;;;354.48;;
62332;SDS011;48624;49.812;8.562;2023-07-20T01:05:19;371.67;;;358.70;;
62332;SDS011;48624;49.812;8.562;2023-07-20T01:08:32;316.95;;;305.98;;
62332;SDS011;48624;49.812;8.562;2023-07-20T01:10:44;280.30;;;271.02;;
62332;SDS011;48624;49.812;8.562;2023-07-20T01:13:15;297.95;;;287.52;;
62332;SDS011;48624;49.812;8.562;2023-07-20T01:15:48;271.80;;;262.63;;
62332;SDS011;48624;49.812;8.562;2023-07-20T01:18:15;254.20;;;245.77;;
62332;SDS011;48624;49.812;8.562;2023-07-20T01:20:40;303.45;;;293.15;;
62332;SDS011;48624;49.812;8.562;2023-07-20T01:26:20;310.50;;;299.90;;
62332;SDS011;48624;49.812;8.562;2023-07-20T01:31:41;369.95;;;356.60;;
62332;SDS011;48624;49.812;8.562;2023-07-20T01:34:08;398.90;;;384.80;;
62332;SDS011;48624;49.812;8.562;2023-07-20T01:36:37;380.33;;;366.77;;
62332;SDS011;48624;49.812;8.562;2023-07-20T01:39:03;404.25;;;390.13;;
62332;SDS011;48624;49.812;8.562;2023-07-20T01:41:29;407.02;;;392.42;;
62332;SDS011;48624;49.812;8.562;2023-07-20T01:43:58;396.40;;;382.40;;
62332;SDS011;48624;49.812;8.562;2023-07-20T01:46:27;450.50;;;433.92;;
62332;SDS011;48624;49.812;8.562;2023-07-20T01:48:52;460.73;;;443.63;;
62332;SDS011;48624;49.812;8.562;2023-07-20T01:51:19;482.50;;;464.13;;
62332;SDS011;48624;49.812;8.562;2023-07-20T01:53:45;490.63;;;472.25;;
62332;SDS011;48624;49.812;8.562;2023-07-20T01:56:10;499.55;;;480.35;;
62332;SDS011;48624;49.812;8.562;2023-07-20T01:58:37;486.13;;;467.88;;
62332;SDS011;48624;49.812;8.562;2023-07-20T02:01:02;509.10;;;489.48;;
62332;SDS011;48624;49.812;8.562;2023-07-20T02:03:28;499.23;;;480.23;;
62332;SDS011;48624;49.812;8.562;2023-07-20T02:05:53;490.85;;;472.00;;
62332;SDS011;48624;49.812;8.562;2023-07-20T02:08:18;511.25;;;491.88;;
62332;SDS011;48624;49.812;8.562;2023-07-20T02:10:47;503.33;;;483.55;;
62332;SDS011;48624;49.812;8.562;2023-07-20T02:13:13;484.98;;;466.52;;
62332;SDS011;48624;49.812;8.562;2023-07-20T02:15:40;484.52;;;466.73;;
62332;SDS011;48624;49.812;8.562;2023-07-20T02:18:07;492.77;;;474.10;;
62332;SDS011;48624;49.812;8.562;2023-07-20T02:20:32;493.70;;;474.77;;
62332;SDS011;48624;49.812;8.562;2023-07-20T02:22:58;494.55;;;475.95;;
62332;SDS011;48624;49.812;8.562;2023-07-20T02:25:23;490.63;;;472.02;;
62332;SDS011;48624;49.812;8.562;2023-07-20T02:27:48;486.67;;;468.33;;
62332;SDS011;48624;49.812;8.562;2023-07-20T02:30:13;488.17;;;469.92;;
62332;SDS011;48624;49.812;8.562;2023-07-20T02:32:41;506.42;;;487.08;;
62332;SDS011;48624;49.812;8.562;2023-07-20T02:35:10;511.88;;;492.13;;
62332;SDS011;48624;49.812;8.562;2023-07-20T02:37:36;540.92;;;519.92;;
62332;SDS011;48624;49.812;8.562;2023-07-20T02:40:02;504.05;;;484.98;;
62332;SDS011;48624;49.812;8.562;2023-07-20T02:42:29;502.90;;;483.58;;
62332;SDS011;48624;49.812;8.562;2023-07-20T02:44:54;502.27;;;483.17;;
62332;SDS011;48624;49.812;8.562;2023-07-20T02:47:19;502.10;;;482.98;;
62332;SDS011;48624;49.812;8.562;2023-07-20T02:49:44;502.45;;;483.45;;
62332;SDS011;48624;49.812;8.562;2023-07-20T02:52:10;503.50;;;484.65;;
62332;SDS011;48624;49.812;8.562;2023-07-20T02:54:35;492.52;;;474.15;;
62332;SDS011;48624;49.812;8.562;2023-07-20T02:57:00;509.60;;;489.98;;
62332;SDS011;48624;49.812;8.562;2023-07-20T02:59:26;555.55;;;533.30;;
62332;SDS011;48624;49.812;8.562;2023-07-20T03:01:51;560.50;;;538.20;;
62332;SDS011;48624;49.812;8.562;2023-07-20T03:04:17;571.15;;;548.20;;
62332;SDS011;48624;49.812;8.562;2023-07-20T03:06:42;591.53;;;566.72;;
62332;SDS011;48624;49.812;8.562;2023-07-20T03:09:08;622.38;;;595.55;;
62332;SDS011;48624;49.812;8.562;2023-07-20T03:11:34;616.50;;;589.95;;
62332;SDS011;48624;49.812;8.562;2023-07-20T03:13:59;623.55;;;596.20;;
62332;SDS011;48624;49.812;8.562;2023-07-20T03:16:25;619.03;;;592.20;;
62332;SDS011;48624;49.812;8.562;2023-07-20T03:18:51;717.85;;;684.13;;
62332;SDS011;48624;49.812;8.562;2023-07-20T03:21:16;712.30;;;679.00;;
62332;SDS011;48624;49.812;8.562;2023-07-20T03:23:42;736.00;;;700.88;;
62332;SDS011;48624;49.812;8.562;2023-07-20T03:26:07;711.05;;;677.65;;
62332;SDS011;48624;49.812;8.562;2023-07-20T03:28:36;705.80;;;672.58;;
62332;SDS011;48624;49.812;8.562;2023-07-20T03:31:02;749.15;;;713.28;;
62332;SDS011;48624;49.812;8.562;2023-07-20T03:33:29;759.80;;;722.67;;
62332;SDS011;48624;49.812;8.562;2023-07-20T03:35:55;741.92;;;705.95;;
62332;SDS011;48624;49.812;8.562;2023-07-20T03:38:22;741.75;;;706.13;;
62332;SDS011;48624;49.812;8.562;2023-07-20T03:40:58;742.15;;;706.45;;
62332;SDS011;48624;49.812;8.562;2023-07-20T03:43:25;711.53;;;678.40;;
62332;SDS011;48624;49.812;8.562;2023-07-20T03:45:52;741.60;;;705.67;;
62332;SDS011;48624;49.812;8.562;2023-07-20T03:48:18;748.20;;;712.42;;
62332;SDS011;48624;49.812;8.562;2023-07-20T03:50:46;744.42;;;708.63;;
62332;SDS011;48624;49.812;8.562;2023-07-20T03:53:13;738.92;;;703.78;;
62332;SDS011;48624;49.812;8.562;2023-07-20T03:55:39;746.30;;;710.65;;
62332;SDS011;48624;49.812;8.562;2023-07-20T03:58:06;747.17;;;711.50;;
62332;SDS011;48624;49.812;8.562;2023-07-20T04:00:31;740.08;;;704.83;;
62332;SDS011;48624;49.812;8.562;2023-07-20T04:02:56;737.40;;;702.15;;
62332;SDS011;48624;49.812;8.562;2023-07-20T04:05:22;707.20;;;674.33;;
62332;SDS011;48624;49.812;8.562;2023-07-20T04:07:47;711.08;;;677.88;;
62332;SDS011;48624;49.812;8.562;2023-07-20T04:10:12;709.83;;;676.72;;
62332;SDS011;48624;49.812;8.562;2023-07-20T04:12:38;715.97;;;682.50;;
62332;SDS011;48624;49.812;8.562;2023-07-20T04:15:03;711.58;;;678.65;;
62332;SDS011;48624;49.812;8.562;2023-07-20T04:17:29;713.45;;;680.50;;
62332;SDS011;48624;49.812;8.562;2023-07-20T04:19:54;713.88;;;680.75;;
62332;SDS011;48624;49.812;8.562;2023-07-20T04:22:19;706.13;;;673.92;;
62332;SDS011;48624;49.812;8.562;2023-07-20T04:24:45;691.28;;;659.72;;
62332;SDS011;48624;49.812;8.562;2023-07-20T04:27:10;698.95;;;667.47;;
62332;SDS011;48624;49.812;8.562;2023-07-20T04:29:35;697.17;;;665.58;;
62332;SDS011;48624;49.812;8.562;2023-07-20T04:32:00;683.72;;;652.85;;
62332;SDS011;48624;49.812;8.562;2023-07-20T04:34:26;691.58;;;659.90;;
62332;SDS011;48624;49.812;8.562;2023-07-20T04:36:51;702.22;;;669.63;;
62332;SDS011;48624;49.812;8.562;2023-07-20T04:39:16;697.53;;;665.78;;
62332;SDS011;48624;49.812;8.562;2023-07-20T04:41:42;683.63;;;653.00;;
62332;SDS011;48624;49.812;8.562;2023-07-20T04:44:07;617.33;;;591.15;;
62332;SDS011;48624;49.812;8.562;2023-07-20T04:46:32;679.13;;;648.78;;
62332;SDS011;48624;49.812;8.562;2023-07-20T04:48:58;669.28;;;639.28;;
62332;SDS011;48624;49.812;8.562;2023-07-20T04:51:23;666.35;;;636.95;;
62332;SDS011;48624;49.812;8.562;2023-07-20T04:53:48;655.70;;;626.55;;
62332;SDS011;48624;49.812;8.562;2023-07-20T04:56:14;656.30;;;627.63;;
62332;SDS011;48624;49.812;8.562;2023-07-20T04:58:39;620.10;;;593.30;;
62332;SDS011;48624;49.812;8.562;2023-07-20T05:01:04;642.92;;;615.13;;
62332;SDS011;48624;49.812;8.562;2023-07-20T05:03:30;615.78;;;589.58;;
62332;SDS011;48624;49.812;8.562;2023-07-20T05:05:57;644.85;;;616.80;;
62332;SDS011;48624;49.812;8.562;2023-07-20T05:08:22;625.33;;;598.90;;
62332;SDS011;48624;49.812;8.562;2023-07-20T05:10:47;636.88;;;609.22;;
62332;SDS011;48624;49.812;8.562;2023-07-20T05:13:14;634.80;;;607.20;;
62332;SDS011;48624;49.812;8.562;2023-07-20T05:15:39;645.65;;;617.40;;
62332;SDS011;48624;49.812;8.562;2023-07-20T05:18:05;630.90;;;603.88;;
62332;SDS011;48624;49.812;8.562;2023-07-20T05:20:30;631.53;;;604.38;;
62332;SDS011;48624;49.812;8.562;2023-07-20T05:22:56;595.70;;;571.28;;
62332;SDS011;48624;49.812;8.562;2023-07-20T05:25:22;577.00;;;552.95;;
62332;SDS011;48624;49.812;8.562;2023-07-20T05:27:47;578.85;;;555.00;;
62332;SDS011;48624;49.812;8.562;2023-07-20T05:30:13;575.55;;;551.88;;
62332;SDS011;48624;49.812;8.562;2023-07-20T05:32:38;529.78;;;508.92;;
62332;SDS011;48624;49.812;8.562;2023-07-20T05:35:03;534.08;;;512.97;;
62332;SDS011;48624;49.812;8.562;2023-07-20T05:37:29;531.65;;;510.90;;
62332;SDS011;48624;49.812;8.562;2023-07-20T05:39:55;529.00;;;508.05;;
62332;SDS011;48624;49.812;8.562;2023-07-20T05:42:20;524.92;;;504.48;;
62332;SDS011;48624;49.812;8.562;2023-07-20T05:44:45;503.42;;;484.38;;
62332;SDS011;48624;49.812;8.562;2023-07-20T05:47:13;495.42;;;476.50;;
62332;SDS011;48624;49.812;8.562;2023-07-20T05:49:38;483.42;;;464.92;;
62332;SDS011;48624;49.812;8.562;2023-07-20T05:52:03;488.55;;;470.35;;
62332;SDS011;48624;49.812;8.562;2023-07-20T05:54:29;473.88;;;456.73;;
62332;SDS011;48624;49.812;8.562;2023-07-20T05:56:54;476.30;;;458.40;;
62332;SDS011;48624;49.812;8.562;2023-07-20T05:59:20;465.15;;;448.13;;
62332;SDS011;48624;49.812;8.562;2023-07-20T06:01:45;463.48;;;446.35;;
62332;SDS011;48624;49.812;8.562;2023-07-20T06:04:13;439.95;;;424.15;;
62332;SDS011;48624;49.812;8.562;2023-07-20T06:06:39;420.48;;;405.33;;
62332;SDS011;48624;49.812;8.562;2023-07-20T06:09:04;402.83;;;388.38;;
62332;SDS011;48624;49.812;8.562;2023-07-20T06:11:30;396.90;;;382.98;;
62332;SDS011;48624;49.812;8.562;2023-07-20T06:13:56;378.85;;;365.45;;
62332;SDS011;48624;49.812;8.562;2023-07-20T06:16:21;314.48;;;303.42;;
62332;SDS011;48624;49.812;8.562;2023-07-20T06:18:47;252.57;;;243.98;;
62332;SDS011;48624;49.812;8.562;2023-07-20T06:21:12;368.58;;;355.70;;
62332;SDS011;48624;49.812;8.562;2023-07-20T06:23:38;385.35;;;371.80;;
62332;SDS011;48624;49.812;8.562;2023-07-20T06:26:03;217.18;;;209.73;;
62332;SDS011;48624;49.812;8.562;2023-07-20T06:28:31;246.93;;;238.55;;
62332;SDS011;48624;49.812;8.562;2023-07-20T06:31:02;335.05;;;323.27;;
62332;SDS011;48624;49.812;8.562;2023-07-20T06:33:28;279.25;;;269.70;;
62332;SDS011;48624;49.812;8.562;2023-07-20T06:35:54;290.25;;;280.55;;
62332;SDS011;48624;49.812;8.562;2023-07-20T06:38:19;301.98;;;291.67;;
62332;SDS011;48624;49.812;8.562;2023-07-20T06:40:46;294.98;;;284.58;;
62332;SDS011;48624;49.812;8.562;2023-07-20T06:43:11;229.55;;;221.93;;
62332;SDS011;48624;49.812;8.562;2023-07-20T06:45:37;236.77;;;228.93;;
62332;SDS011;48624;49.812;8.562;2023-07-20T06:48:02;229.20;;;221.30;;
62332;SDS011;48624;49.812;8.562;2023-07-20T06:50:28;186.98;;;180.77;;
62332;SDS011;48624;49.812;8.562;2023-07-20T06:52:53;194.57;;;188.23;;
62332;SDS011;48624;49.812;8.562;2023-07-20T06:55:19;191.05;;;184.65;;
62332;SDS011;48624;49.812;8.562;2023-07-20T06:57:44;192.50;;;186.00;;
62332;SDS011;48624;49.812;8.562;2023-07-20T07:00:09;186.18;;;179.75;;
62332;SDS011;48624;49.812;8.562;2023-07-20T07:02:35;172.30;;;166.52;;
62332;SDS011;48624;49.812;8.562;2023-07-20T07:05:01;177.05;;;171.07;;
62332;SDS011;48624;49.812;8.562;2023-07-20T07:07:26;228.43;;;220.82;;
62332;SDS011;48624;49.812;8.562;2023-07-20T07:09:52;175.77;;;169.85;;
62332;SDS011;48624;49.812;8.562;2023-07-20T07:12:17;192.82;;;186.38;;
62332;SDS011;48624;49.812;8.562;2023-07-20T07:14:42;207.73;;;200.68;;
62332;SDS011;48624;49.812;8.562;2023-07-20T07:17:08;176.27;;;170.43;;
62332;SDS011;48624;49.812;8.562;2023-07-20T07:19:34;173.35;;;167.48;;
62332;SDS011;48624;49.812;8.562;2023-07-20T07:22:01;91.10;;;87.65;;
62332;SDS011;48624;49.812;8.562;2023-07-20T07:24:26;42.33;;;40.63;;
62332;SDS011;48624;49.812;8.562;2023-07-20T07:26:52;36.42;;;35.08;;
62332;SDS011;48624;49.812;8.562;2023-07-20T07:29:18;36.20;;;34.40;;
62332;SDS011;48624;49.812;8.562;2023-07-20T07:31:43;27.73;;;26.08;;
62332;SDS011;48624;49.812;8.562;2023-07-20T07:34:08;19.67;;;18.88;;
62332;SDS011;48624;49.812;8.562;2023-07-20T07:36:34;22.92;;;22.02;;
62332;SDS011;48624;49.812;8.562;2023-07-20T07:39:00;20.58;;;19.58;;
62332;SDS011;48624;49.812;8.562;2023-07-20T07:41:25;20.42;;;19.70;;
62332;SDS011;48624;49.812;8.562;2023-07-20T07:43:50;11.90;;;11.15;;
62332;SDS011;48624;49.812;8.562;2023-07-20T07:46:16;6.53;;;5.93;;
62332;SDS011;48624;49.812;8.562;2023-07-20T07:48:42;5.47;;;5.07;;
62332;SDS011;48624;49.812;8.562;2023-07-20T07:51:07;4.05;;;3.75;;
62332;SDS011;48624;49.812;8.562;2023-07-20T07:53:33;4.38;;;3.42;;
62332;SDS011;48624;49.812;8.562;2023-07-20T07:56:00;3.58;;;2.63;;
62332;SDS011;48624;49.812;8.562;2023-07-20T07:58:25;3.92;;;2.50;;
62332;SDS011;48624;49.812;8.562;2023-07-20T08:00:51;3.95;;;2.53;;
62332;SDS011;48624;49.812;8.562;2023-07-20T08:03:16;4.60;;;3.17;;
62332;SDS011;48624;49.812;8.562;2023-07-20T08:05:41;3.60;;;3.30;;
62332;SDS011;48624;49.812;8.562;2023-07-20T08:08:07;3.78;;;3.47;;
62332;SDS011;48624;49.812;8.562;2023-07-20T08:10:33;4.75;;;4.35;;
62332;SDS011;48624;49.812;8.562;2023-07-20T08:12:59;3.10;;;2.80;;
62332;SDS011;48624;49.812;8.562;2023-07-20T08:15:24;4.55;;;4.25;;
62332;SDS011;48624;49.812;8.562;2023-07-20T08:17:49;6.22;;;3.22;;
62332;SDS011;48624;49.812;8.562;2023-07-20T08:20:16;5.00;;;2.40;;
62332;SDS011;48624;49.812;8.562;2023-07-20T08:22:42;4.85;;;3.22;;
62332;SDS011;48624;49.812;8.562;2023-07-20T08:25:08;4.35;;;2.00;;
62332;SDS011;48624;49.812;8.562;2023-07-20T08:27:34;2.10;;;1.30;;
62332;SDS011;48624;49.812;8.562;2023-07-20T08:30:00;3.22;;;1.75;;
62332;SDS011;48624;49.812;8.562;2023-07-20T08:32:25;3.88;;;1.55;;
62332;SDS011;48624;49.812;8.562;2023-07-20T08:34:51;4.40;;;1.95;;
62332;SDS011;48624;49.812;8.562;2023-07-20T08:37:17;3.72;;;1.60;;
62332;SDS011;48624;49.812;8.562;2023-07-20T08:39:42;2.95;;;1.85;;
62332;SDS011;48624;49.812;8.562;2023-07-20T08:42:08;3.88;;;1.83;;
62332;SDS011;48624;49.812;8.562;2023-07-20T08:44:35;4.70;;;1.95;;
62332;SDS011;48624;49.812;8.562;2023-07-20T08:47:03;2.35;;;1.90;;
62332;SDS011;48624;49.812;8.562;2023-07-20T08:49:31;3.75;;;1.75;;
62332;SDS011;48624;49.812;8.562;2023-07-20T08:51:57;2.92;;;1.63;;
62332;SDS011;48624;49.812;8.562;2023-07-20T08:54:24;2.55;;;1.30;;
62332;SDS011;48624;49.812;8.562;2023-07-20T08:56:54;3.22;;;1.63;;
62332;SDS011;48624;49.812;8.562;2023-07-20T08:59:22;4.40;;;1.58;;
62332;SDS011;48624;49.812;8.562;2023-07-20T09:01:49;4.00;;;1.05;;
62332;SDS011;48624;49.812;8.562;2023-07-20T09:04:17;3.83;;;1.83;;
62332;SDS011;48624;49.812;8.562;2023-07-20T09:06:43;1.75;;;1.25;;
62332;SDS011;48624;49.812;8.562;2023-07-20T09:09:08;2.10;;;1.40;;
62332;SDS011;48624;49.812;8.562;2023-07-20T09:11:33;3.85;;;1.83;;
62332;SDS011;48624;49.812;8.562;2023-07-20T09:14:03;2.70;;;1.25;;
62332;SDS011;48624;49.812;8.562;2023-07-20T09:16:29;7.72;;;1.38;;
62332;SDS011;48624;49.812;8.562;2023-07-20T09:18:57;2.78;;;1.65;;
62332;SDS011;48624;49.812;8.562;2023-07-20T09:21:22;5.00;;;1.10;;
62332;SDS011;48624;49.812;8.562;2023-07-20T09:23:48;3.72;;;1.20;;
62332;SDS011;48624;49.812;8.562;2023-07-20T09:26:14;3.90;;;1.08;;
62332;SDS011;48624;49.812;8.562;2023-07-20T09:28:44;3.03;;;1.65;;
62332;SDS011;48624;49.812;8.562;2023-07-20T09:31:20;2.05;;;1.20;;
62332;SDS011;48624;49.812;8.562;2023-07-20T09:33:47;2.08;;;1.25;;
62332;SDS011;48624;49.812;8.562;2023-07-20T09:36:13;3.10;;;1.50;;
62332;SDS011;48624;49.812;8.562;2023-07-20T09:38:42;1.95;;;1.10;;
62332;SDS011;48624;49.812;8.562;2023-07-20T09:41:12;1.05;;;0.85;;
62332;SDS011;48624;49.812;8.562;2023-07-20T09:43:43;1.30;;;1.20;;
62332;SDS011;48624;49.812;8.562;2023-07-20T09:46:10;2.78;;;1.00;;
62332;SDS011;48624;49.812;8.562;2023-07-20T09:48:36;2.38;;;1.20;;
62332;SDS011;48624;49.812;8.562;2023-07-20T09:51:01;1.75;;;1.20;;
62332;SDS011;48624;49.812;8.562;2023-07-20T09:53:28;2.65;;;1.13;;
62332;SDS011;48624;49.812;8.562;2023-07-20T09:55:54;2.83;;;1.65;;
62332;SDS011;48624;49.812;8.562;2023-07-20T09:58:21;4.03;;;1.50;;
62332;SDS011;48624;49.812;8.562;2023-07-20T10:00:47;2.70;;;1.30;;
62332;SDS011;48624;49.812;8.562;2023-07-20T10:03:18;2.40;;;1.17;;
62332;SDS011;48624;49.812;8.562;2023-07-20T10:05:46;1.40;;;1.00;;
62332;SDS011;48624;49.812;8.562;2023-07-20T10:08:17;5.55;;;1.70;;
62332;SDS011;48624;49.812;8.562;2023-07-20T10:10:45;2.90;;;1.50;;
62332;SDS011;48624;49.812;8.562;2023-07-20T10:13:14;4.78;;;1.30;;
62332;SDS011;48624;49.812;8.562;2023-07-20T10:15:43;4.72;;;1.25;;
62332;SDS011;48624;49.812;8.562;2023-07-20T10:18:22;5.07;;;1.40;;
62332;SDS011;48624;49.812;8.562;2023-07-20T10:20:54;2.08;;;1.30;;
62332;SDS011;48624;49.812;8.562;2023-07-20T10:23:20;2.28;;;1.20;;
62332;SDS011;48624;49.812;8.562;2023-07-20T10:25:46;2.63;;;1.40;;
62332;SDS011;48624;49.812;8.562;2023-07-20T10:28:12;3.85;;;1.13;;
62332;SDS011;48624;49.812;8.562;2023-07-20T10:30:38;2.30;;;0.98;;
62332;SDS011;48624;49.812;8.562;2023-07-20T10:33:05;1.58;;;0.95;;
62332;SDS011;48624;49.812;8.562;2023-07-20T10:35:50;2.70;;;1.05;;
62332;SDS011;48624;49.812;8.562;2023-07-20T10:38:18;2.20;;;1.00;;
62332;SDS011;48624;49.812;8.562;2023-07-20T10:40:53;2.15;;;0.80;;
62332;SDS011;48624;49.812;8.562;2023-07-20T10:43:19;1.38;;;0.95;;
62332;SDS011;48624;49.812;8.562;2023-07-20T10:45:49;2.83;;;1.25;;
62332;SDS011;48624;49.812;8.562;2023-07-20T10:48:21;3.85;;;1.20;;
62332;SDS011;48624;49.812;8.562;2023-07-20T10:53:39;4.57;;;0.90;;
62332;SDS011;48624;49.812;8.562;2023-07-20T10:56:08;1.33;;;0.90;;
62332;SDS011;48624;49.812;8.562;2023-07-20T10:58:38;1.00;;;0.73;;
62332;SDS011;48624;49.812;8.562;2023-07-20T11:01:05;1.60;;;0.90;;
62332;SDS011;48624;49.812;8.562;2023-07-20T11:03:36;2.97;;;1.17;;
62332;SDS011;48624;49.812;8.562;2023-07-20T11:06:51;2.10;;;1.02;;
62332;SDS011;48624;49.812;8.562;2023-07-20T11:09:07;2.30;;;1.20;;
62332;SDS011;48624;49.812;8.562;2023-07-20T11:11:40;2.30;;;2.13;;
62332;SDS011;48624;49.812;8.562;2023-07-20T11:14:10;2.78;;;1.90;;
62332;SDS011;48624;49.812;8.562;2023-07-20T11:16:45;4.65;;;4.35;;
62332;SDS011;48624;49.812;8.562;2023-07-20T11:21:42;5.10;;;2.30;;
62332;SDS011;48624;49.812;8.562;2023-07-20T11:24:08;3.53;;;3.30;;
62332;SDS011;48624;49.812;8.562;2023-07-20T11:26:42;4.05;;;3.70;;
62332;SDS011;48624;49.812;8.562;2023-07-20T11:29:07;7.88;;;7.30;;
62332;SDS011;48624;49.812;8.562;2023-07-20T11:31:38;60.05;;;57.67;;
62332;SDS011;48624;49.812;8.562;2023-07-20T11:34:07;54.08;;;52.20;;
62332;SDS011;48624;49.812;8.562;2023-07-20T11:36:36;126.45;;;122.13;;
62332;SDS011;48624;49.812;8.562;2023-07-20T11:39:02;94.18;;;91.00;;
62332;SDS011;48624;49.812;8.562;2023-07-20T11:41:29;115.20;;;111.25;;
62332;SDS011;48624;49.812;8.562;2023-07-20T11:43:55;97.10;;;93.80;;
62332;SDS011;48624;49.812;8.562;2023-07-20T11:46:22;82.85;;;80.00;;
62332;SDS011;48624;49.812;8.562;2023-07-20T11:48:48;46.00;;;44.45;;
62332;SDS011;48624;49.812;8.562;2023-07-20T11:51:14;44.28;;;42.78;;
62332;SDS011;48624;49.812;8.562;2023-07-20T11:53:41;83.57;;;80.60;;
62332;SDS011;48624;49.812;8.562;2023-07-20T11:56:08;13.40;;;12.80;;
62332;SDS011;48624;49.812;8.562;2023-07-20T11:58:33;3.70;;;3.50;;
62332;SDS011;48624;49.812;8.562;2023-07-20T12:00:59;1.50;;;1.40;;
62332;SDS011;48624;49.812;8.562;2023-07-20T12:03:24;0.95;;;0.80;;
62332;SDS011;48624;49.812;8.562;2023-07-20T12:05:50;2.13;;;0.80;;
62332;SDS011;48624;49.812;8.562;2023-07-20T12:08:15;2.85;;;0.95;;
62332;SDS011;48624;49.812;8.562;2023-07-20T12:10:41;2.05;;;1.15;;
62332;SDS011;48624;49.812;8.562;2023-07-20T12:13:09;2.42;;;0.85;;
62332;SDS011;48624;49.812;8.562;2023-07-20T12:15:38;1.48;;;0.80;;
62332;SDS011;48624;49.812;8.562;2023-07-20T12:18:05;2.17;;;1.38;;
62332;SDS011;48624;49.812;8.562;2023-07-20T12:23:12;4.07;;;1.13;;
62332;SDS011;48624;49.812;8.562;2023-07-20T12:25:39;1.33;;;1.00;;
62332;SDS011;48624;49.812;8.562;2023-07-20T12:28:09;3.08;;;1.13;;
62332;SDS011;48624;49.812;8.562;2023-07-20T12:30:37;6.03;;;1.45;;
62332;SDS011;48624;49.812;8.562;2023-07-20T12:33:03;1.35;;;1.00;;
62332;SDS011;48624;49.812;8.562;2023-07-20T12:35:30;1.35;;;0.93;;
62332;SDS011;48624;49.812;8.562;2023-07-20T12:37:56;2.28;;;1.05;;
62332;SDS011;48624;49.812;8.562;2023-07-20T12:40:21;1.40;;;0.88;;
62332;SDS011;48624;49.812;8.562;2023-07-20T12:42:47;3.03;;;1.42;;
62332;SDS011;48624;49.812;8.562;2023-07-20T12:45:13;3.30;;;1.30;;
62332;SDS011;48624;49.812;8.562;2023-07-20T12:47:40;1.45;;;1.35;;
62332;SDS011;48624;49.812;8.562;2023-07-20T12:50:08;2.10;;;1.95;;
62332;SDS011;48624;49.812;8.562;2023-07-20T12:52:37;4.35;;;2.83;;
62332;SDS011;48624;49.812;8.562;2023-07-20T12:55:04;1.90;;;1.58;;
62332;SDS011;48624;49.812;8.562;2023-07-20T12:57:30;3.17;;;2.80;;
62332;SDS011;48624;49.812;8.562;2023-07-20T12:59:55;2.85;;;2.45;;
62332;SDS011;48624;49.812;8.562;2023-07-20T13:02:21;4.30;;;3.97;;
62332;SDS011;48624;49.812;8.562;2023-07-20T13:04:46;11.30;;;10.73;;
62332;SDS011;48624;49.812;8.562;2023-07-20T13:07:11;3.90;;;3.60;;
62332;SDS011;48624;49.812;8.562;2023-07-20T13:09:37;8.88;;;8.48;;
62332;SDS011;48624;49.812;8.562;2023-07-20T13:12:02;27.85;;;26.88;;
62332;SDS011;48624;49.812;8.562;2023-07-20T13:14:28;41.40;;;39.92;;
62332;SDS011;48624;49.812;8.562;2023-07-20T13:16:55;33.90;;;32.78;;
62332;SDS011;48624;49.812;8.562;2023-07-20T13:19:20;151.00;;;145.70;;
62332;SDS011;48624;49.812;8.562;2023-07-20T13:21:46;154.65;;;149.18;;
62332;SDS011;48624;49.812;8.562;2023-07-20T13:24:11;114.05;;;110.07;;
62332;SDS011;48624;49.812;8.562;2023-07-20T13:26:37;77.05;;;74.32;;
62332;SDS011;48624;49.812;8.562;2023-07-20T13:29:02;211.93;;;204.52;;
62332;SDS011;48624;49.812;8.562;2023-07-20T13:31:28;255.07;;;245.93;;
62332;SDS011;48624;49.812;8.562;2023-07-20T13:33:53;496.23;;;474.05;;
62332;SDS011;48624;49.812;8.562;2023-07-20T13:36:19;587.08;;;558.60;;
62332;SDS011;48624;49.812;8.562;2023-07-20T13:38:46;690.10;;;651.42;;
62332;SDS011;48624;49.812;8.562;2023-07-20T13:41:13;774.05;;;725.97;;
62332;SDS011;48624;49.812;8.562;2023-07-20T13:43:39;830.28;;;776.72;;
62332;SDS011;48624;49.812;8.562;2023-07-20T13:46:04;808.45;;;756.90;;
62332;SDS011;48624;49.812;8.562;2023-07-20T13:48:29;792.85;;;743.15;;
62332;SDS011;48624;49.812;8.562;2023-07-20T13:50:55;783.78;;;735.40;;
62332;SDS011;48624;49.812;8.562;2023-07-20T13:53:20;814.88;;;762.78;;
62332;SDS011;48624;49.812;8.562;2023-07-20T13:55:47;844.92;;;789.17;;
62332;SDS011;48624;49.812;8.562;2023-07-20T13:58:12;869.85;;;812.00;;
62332;SDS011;48624;49.812;8.562;2023-07-20T14:00:37;880.15;;;820.72;;
62332;SDS011;48624;49.812;8.562;2023-07-20T14:03:04;891.33;;;830.65;;
62332;SDS011;48624;49.812;8.562;2023-07-20T14:05:29;883.00;;;822.25;;
62332;SDS011;48624;49.812;8.562;2023-07-20T14:07:55;871.83;;;814.15;;
62332;SDS011;48624;49.812;8.562;2023-07-20T14:10:20;822.65;;;770.03;;
62332;SDS011;48624;49.812;8.562;2023-07-20T14:12:45;816.70;;;764.00;;
62332;SDS011;48624;49.812;8.562;2023-07-20T14:15:11;805.20;;;754.10;;
62332;SDS011;48624;49.812;8.562;2023-07-20T14:17:36;788.70;;;739.53;;
62332;SDS011;48624;49.812;8.562;2023-07-20T14:20:02;693.53;;;654.53;;
62332;SDS011;48624;49.812;8.562;2023-07-20T14:22:30;723.95;;;680.90;;
62332;SDS011;48624;49.812;8.562;2023-07-20T14:24:55;669.50;;;633.35;;
62332;SDS011;48624;49.812;8.562;2023-07-20T14:27:21;600.33;;;570.58;;